sensor_id;sensor_type;location;lat;lon;timestamp;temperature;humidity
44305;DHT22;30019;50.576;8.568;2022-11-09T00:00:21;11.10;99.90
44305;DHT22;30019;50.576;8.568;2022-11-09T00:02:46;11.20;99.90
44305;DHT22;30019;50.576;8.568;2022-11-09T00:05:12;11.30;99.90
44305;DHT22;30019;50.576;8.568;2022-11-09T00:07:37;11.40;99.90
44305;DHT22;30019;50.576;8.568;2022-11-09T00:10:03;11.50;99.90
44305;DHT22;30019;50.576;8.568;2022-11-09T00:12:29;11.50;99.90
44305;DHT22;30019;50.576;8.568;2022-11-09T00:14:54;11.60;99.90
44305;DHT22;30019;50.576;8.568;2022-11-09T00:17:20;11.60;99.90
44305;DHT22;30019;50.576;8.568;2022-11-09T00:19:45;11.60;99.90
44305;DHT22;30019;50.576;8.568;2022-11-09T00:22:11;11.60;99.90
44305;DHT22;30019;50.576;8.568;2022-11-09T00:24:36;11.60;99.90
44305;DHT22;30019;50.576;8.568;2022-11-09T00:27:02;11.60;99.90
44305;DHT22;30019;50.576;8.568;2022-11-09T00:29:28;11.50;99.90
44305;DHT22;30019;50.576;8.568;2022-11-09T00:31:53;11.50;99.90
44305;DHT22;30019;50.576;8.568;2022-11-09T00:34:19;11.40;99.90
44305;DHT22;30019;50.576;8.568;2022-11-09T00:36:44;11.30;99.90
44305;DHT22;30019;50.576;8.568;2022-11-09T00:39:10;11.20;99.90
44305;DHT22;30019;50.576;8.568;2022-11-09T00:41:35;11.00;99.90
44305;DHT22;30019;50.576;8.568;2022-11-09T00:44:01;10.90;99.90
44305;DHT22;30019;50.576;8.568;2022-11-09T00:46:26;10.80;99.90
44305;DHT22;30019;50.576;8.568;2022-11-09T00:48:53;10.80;99.90
44305;DHT22;30019;50.576;8.568;2022-11-09T00:51:20;10.60;99.90
44305;DHT22;30019;50.576;8.568;2022-11-09T00:53:46;10.60;99.90
44305;DHT22;30019;50.576;8.568;2022-11-09T00:56:12;10.60;99.90
44305;DHT22;30019;50.576;8.568;2022-11-09T00:58:39;10.60;99.90
44305;DHT22;30019;50.576;8.568;2022-11-09T01:01:10;10.60;99.90
44305;DHT22;30019;50.576;8.568;2022-11-09T01:03:37;10.60;99.90
44305;DHT22;30019;50.576;8.568;2022-11-09T01:06:03;10.60;99.90
44305;DHT22;30019;50.576;8.568;2022-11-09T01:08:29;10.60;99.90
44305;DHT22;30019;50.576;8.568;2022-11-09T01:10:55;10.60;99.90
44305;DHT22;30019;50.576;8.568;2022-11-09T01:13:20;10.50;99.90
44305;DHT22;30019;50.576;8.568;2022-11-09T01:15:50;10.50;99.90
44305;DHT22;30019;50.576;8.568;2022-11-09T01:18:18;10.50;99.90
44305;DHT22;30019;50.576;8.568;2022-11-09T01:20:45;10.50;99.90
44305;DHT22;30019;50.576;8.568;2022-11-09T01:23:12;10.70;99.90
44305;DHT22;30019;50.576;8.568;2022-11-09T01:25:38;10.70;99.90
44305;DHT22;30019;50.576;8.568;2022-11-09T01:28:04;10.60;99.90
44305;DHT22;30019;50.576;8.568;2022-11-09T01:30:33;10.60;99.90
44305;DHT22;30019;50.576;8.568;2022-11-09T01:33:01;10.60;99.90
44305;DHT22;30019;50.576;8.568;2022-11-09T01:35:26;10.60;99.90
44305;DHT22;30019;50.576;8.568;2022-11-09T01:37:52;10.60;99.90
44305;DHT22;30019;50.576;8.568;2022-11-09T01:40:17;10.60;99.90
44305;DHT22;30019;50.576;8.568;2022-11-09T01:42:43;10.70;99.90
44305;DHT22;30019;50.576;8.568;2022-11-09T01:45:22;10.70;99.90
44305;DHT22;30019;50.576;8.568;2022-11-09T01:48:00;10.80;99.90
44305;DHT22;30019;50.576;8.568;2022-11-09T01:50:35;10.80;99.90
44305;DHT22;30019;50.576;8.568;2022-11-09T01:53:04;10.80;99.90
44305;DHT22;30019;50.576;8.568;2022-11-09T01:55:30;10.80;99.90
44305;DHT22;30019;50.576;8.568;2022-11-09T01:58:00;10.70;99.90
44305;DHT22;30019;50.576;8.568;2022-11-09T02:00:26;10.60;99.90
44305;DHT22;30019;50.576;8.568;2022-11-09T02:03:05;10.60;99.90
44305;DHT22;30019;50.576;8.568;2022-11-09T02:05:33;10.50;99.90
44305;DHT22;30019;50.576;8.568;2022-11-09T02:08:02;10.60;99.90
44305;DHT22;30019;50.576;8.568;2022-11-09T02:10:43;10.50;99.90
44305;DHT22;30019;50.576;8.568;2022-11-09T02:13:11;10.50;99.90
44305;DHT22;30019;50.576;8.568;2022-11-09T02:15:37;10.50;99.90
44305;DHT22;30019;50.576;8.568;2022-11-09T02:18:03;10.50;99.90
44305;DHT22;30019;50.576;8.568;2022-11-09T02:20:29;10.50;99.90
44305;DHT22;30019;50.576;8.568;2022-11-09T02:22:55;10.60;99.90
44305;DHT22;30019;50.576;8.568;2022-11-09T02:25:20;10.70;99.90
44305;DHT22;30019;50.576;8.568;2022-11-09T02:27:46;10.70;99.90
44305;DHT22;30019;50.576;8.568;2022-11-09T02:30:13;10.80;99.90
44305;DHT22;30019;50.576;8.568;2022-11-09T02:32:39;10.80;99.90
44305;DHT22;30019;50.576;8.568;2022-11-09T02:35:05;10.90;99.90
44305;DHT22;30019;50.576;8.568;2022-11-09T02:37:37;10.90;99.90
44305;DHT22;30019;50.576;8.568;2022-11-09T02:40:08;10.80;99.90
44305;DHT22;30019;50.576;8.568;2022-11-09T02:42:36;10.90;99.90
44305;DHT22;30019;50.576;8.568;2022-11-09T02:45:02;10.90;99.90
44305;DHT22;30019;50.576;8.568;2022-11-09T02:47:28;10.90;99.90
44305;DHT22;30019;50.576;8.568;2022-11-09T02:49:53;11.00;99.90
44305;DHT22;30019;50.576;8.568;2022-11-09T02:52:22;11.00;99.90
44305;DHT22;30019;50.576;8.568;2022-11-09T02:54:47;11.10;99.90
44305;DHT22;30019;50.576;8.568;2022-11-09T02:57:13;11.20;99.90
44305;DHT22;30019;50.576;8.568;2022-11-09T02:59:39;11.20;99.90
44305;DHT22;30019;50.576;8.568;2022-11-09T03:02:04;11.10;99.90
44305;DHT22;30019;50.576;8.568;2022-11-09T03:04:30;11.20;99.90
44305;DHT22;30019;50.576;8.568;2022-11-09T03:06:55;11.20;99.90
44305;DHT22;30019;50.576;8.568;2022-11-09T03:09:21;11.10;99.90
44305;DHT22;30019;50.576;8.568;2022-11-09T03:11:46;11.10;99.90
44305;DHT22;30019;50.576;8.568;2022-11-09T03:14:12;11.00;99.90
44305;DHT22;30019;50.576;8.568;2022-11-09T03:16:38;11.10;99.90
44305;DHT22;30019;50.576;8.568;2022-11-09T03:19:03;11.10;99.90
44305;DHT22;30019;50.576;8.568;2022-11-09T03:21:29;11.10;99.90
44305;DHT22;30019;50.576;8.568;2022-11-09T03:23:54;11.10;99.90
44305;DHT22;30019;50.576;8.568;2022-11-09T03:26:21;11.00;99.90
44305;DHT22;30019;50.576;8.568;2022-11-09T03:28:46;11.10;99.90
44305;DHT22;30019;50.576;8.568;2022-11-09T03:31:12;11.20;99.90
44305;DHT22;30019;50.576;8.568;2022-11-09T03:33:38;11.20;99.90
44305;DHT22;30019;50.576;8.568;2022-11-09T03:36:04;11.20;99.90
44305;DHT22;30019;50.576;8.568;2022-11-09T03:38:30;11.20;99.90
44305;DHT22;30019;50.576;8.568;2022-11-09T03:40:58;11.20;99.90
44305;DHT22;30019;50.576;8.568;2022-11-09T03:43:23;11.20;99.90
44305;DHT22;30019;50.576;8.568;2022-11-09T03:45:49;11.20;99.90
44305;DHT22;30019;50.576;8.568;2022-11-09T03:48:14;11.20;99.90
44305;DHT22;30019;50.576;8.568;2022-11-09T03:50:40;11.10;99.90
44305;DHT22;30019;50.576;8.568;2022-11-09T03:53:09;11.00;99.90
44305;DHT22;30019;50.576;8.568;2022-11-09T03:55:36;11.00;99.90
44305;DHT22;30019;50.576;8.568;2022-11-09T03:58:03;11.00;99.90
44305;DHT22;30019;50.576;8.568;2022-11-09T04:00:29;11.00;99.90
44305;DHT22;30019;50.576;8.568;2022-11-09T04:02:55;11.00;99.90
44305;DHT22;30019;50.576;8.568;2022-11-09T04:05:21;11.00;99.90
44305;DHT22;30019;50.576;8.568;2022-11-09T04:07:51;11.00;99.90
44305;DHT22;30019;50.576;8.568;2022-11-09T04:10:18;11.00;99.90
44305;DHT22;30019;50.576;8.568;2022-11-09T04:12:44;11.00;99.90
44305;DHT22;30019;50.576;8.568;2022-11-09T04:15:10;11.00;99.90
44305;DHT22;30019;50.576;8.568;2022-11-09T04:17:36;11.00;99.90
44305;DHT22;30019;50.576;8.568;2022-11-09T04:20:02;11.00;99.90
44305;DHT22;30019;50.576;8.568;2022-11-09T04:22:27;11.10;99.90
44305;DHT22;30019;50.576;8.568;2022-11-09T04:24:53;11.10;99.90
44305;DHT22;30019;50.576;8.568;2022-11-09T04:27:18;11.00;99.90
44305;DHT22;30019;50.576;8.568;2022-11-09T04:29:44;11.00;99.90
44305;DHT22;30019;50.576;8.568;2022-11-09T04:32:10;11.00;99.90
44305;DHT22;30019;50.576;8.568;2022-11-09T04:34:35;11.00;99.90
44305;DHT22;30019;50.576;8.568;2022-11-09T04:37:01;11.00;99.90
44305;DHT22;30019;50.576;8.568;2022-11-09T04:39:26;11.10;99.90
44305;DHT22;30019;50.576;8.568;2022-11-09T04:41:52;11.10;99.90
44305;DHT22;30019;50.576;8.568;2022-11-09T04:44:17;11.10;99.90
44305;DHT22;30019;50.576;8.568;2022-11-09T04:46:43;11.20;99.90
44305;DHT22;30019;50.576;8.568;2022-11-09T04:49:08;11.20;99.90
44305;DHT22;30019;50.576;8.568;2022-11-09T04:51:34;11.20;99.90
44305;DHT22;30019;50.576;8.568;2022-11-09T04:53:59;11.30;99.90
44305;DHT22;30019;50.576;8.568;2022-11-09T04:56:25;11.30;99.90
44305;DHT22;30019;50.576;8.568;2022-11-09T04:58:50;11.40;99.90
44305;DHT22;30019;50.576;8.568;2022-11-09T05:01:16;11.30;99.90
44305;DHT22;30019;50.576;8.568;2022-11-09T05:03:42;11.30;99.90
44305;DHT22;30019;50.576;8.568;2022-11-09T05:06:08;11.30;99.90
44305;DHT22;30019;50.576;8.568;2022-11-09T05:08:53;11.30;99.90
44305;DHT22;30019;50.576;8.568;2022-11-09T05:11:19;11.20;99.90
44305;DHT22;30019;50.576;8.568;2022-11-09T05:13:44;11.20;99.90
44305;DHT22;30019;50.576;8.568;2022-11-09T05:16:10;11.20;99.90
44305;DHT22;30019;50.576;8.568;2022-11-09T05:18:36;11.20;99.90
44305;DHT22;30019;50.576;8.568;2022-11-09T05:21:02;11.20;99.90
44305;DHT22;30019;50.576;8.568;2022-11-09T05:23:27;11.10;99.90
44305;DHT22;30019;50.576;8.568;2022-11-09T05:26:12;11.10;99.90
44305;DHT22;30019;50.576;8.568;2022-11-09T05:28:38;11.10;99.90
44305;DHT22;30019;50.576;8.568;2022-11-09T05:31:04;10.90;99.90
44305;DHT22;30019;50.576;8.568;2022-11-09T05:33:29;10.90;99.90
44305;DHT22;30019;50.576;8.568;2022-11-09T05:35:55;11.00;99.90
44305;DHT22;30019;50.576;8.568;2022-11-09T05:38:22;11.00;99.90
44305;DHT22;30019;50.576;8.568;2022-11-09T05:40:49;11.00;99.90
44305;DHT22;30019;50.576;8.568;2022-11-09T05:43:14;11.00;99.90
44305;DHT22;30019;50.576;8.568;2022-11-09T05:45:41;11.00;99.90
44305;DHT22;30019;50.576;8.568;2022-11-09T05:48:06;11.00;99.90
44305;DHT22;30019;50.576;8.568;2022-11-09T05:50:32;11.00;99.90
44305;DHT22;30019;50.576;8.568;2022-11-09T05:52:59;11.00;99.90
44305;DHT22;30019;50.576;8.568;2022-11-09T05:55:26;11.10;99.90
44305;DHT22;30019;50.576;8.568;2022-11-09T05:57:52;11.10;99.90
44305;DHT22;30019;50.576;8.568;2022-11-09T06:00:17;11.20;99.90
44305;DHT22;30019;50.576;8.568;2022-11-09T06:02:43;11.10;99.90
44305;DHT22;30019;50.576;8.568;2022-11-09T06:05:09;11.10;99.90
44305;DHT22;30019;50.576;8.568;2022-11-09T06:07:34;11.20;99.90
44305;DHT22;30019;50.576;8.568;2022-11-09T06:10:00;11.20;99.90
44305;DHT22;30019;50.576;8.568;2022-11-09T06:12:26;11.20;99.90
44305;DHT22;30019;50.576;8.568;2022-11-09T06:14:51;11.10;99.90
44305;DHT22;30019;50.576;8.568;2022-11-09T06:17:17;11.10;99.90
44305;DHT22;30019;50.576;8.568;2022-11-09T06:19:42;11.10;99.90
44305;DHT22;30019;50.576;8.568;2022-11-09T06:22:08;11.10;99.90
44305;DHT22;30019;50.576;8.568;2022-11-09T06:24:33;11.10;99.90
44305;DHT22;30019;50.576;8.568;2022-11-09T06:26:59;11.10;99.90
44305;DHT22;30019;50.576;8.568;2022-11-09T06:29:25;11.10;99.90
44305;DHT22;30019;50.576;8.568;2022-11-09T06:31:50;11.00;99.90
44305;DHT22;30019;50.576;8.568;2022-11-09T06:34:16;11.00;99.90
44305;DHT22;30019;50.576;8.568;2022-11-09T06:36:42;11.00;99.90
44305;DHT22;30019;50.576;8.568;2022-11-09T06:39:08;11.00;99.90
44305;DHT22;30019;50.576;8.568;2022-11-09T06:41:35;10.90;99.90
44305;DHT22;30019;50.576;8.568;2022-11-09T06:44:00;10.90;99.90
44305;DHT22;30019;50.576;8.568;2022-11-09T06:46:26;11.00;99.90
44305;DHT22;30019;50.576;8.568;2022-11-09T06:48:52;11.00;99.90
44305;DHT22;30019;50.576;8.568;2022-11-09T06:51:17;11.00;99.90
44305;DHT22;30019;50.576;8.568;2022-11-09T06:53:43;11.00;99.90
44305;DHT22;30019;50.576;8.568;2022-11-09T06:56:09;11.00;99.90
44305;DHT22;30019;50.576;8.568;2022-11-09T06:58:35;11.00;99.90
44305;DHT22;30019;50.576;8.568;2022-11-09T07:01:09;11.00;99.90
44305;DHT22;30019;50.576;8.568;2022-11-09T07:03:35;11.10;99.90
44305;DHT22;30019;50.576;8.568;2022-11-09T07:06:04;11.10;99.90
44305;DHT22;30019;50.576;8.568;2022-11-09T07:08:31;11.10;99.90
44305;DHT22;30019;50.576;8.568;2022-11-09T07:11:05;11.10;99.90
44305;DHT22;30019;50.576;8.568;2022-11-09T07:13:31;11.20;99.90
44305;DHT22;30019;50.576;8.568;2022-11-09T07:15:57;11.30;99.90
44305;DHT22;30019;50.576;8.568;2022-11-09T07:18:23;11.30;99.90
44305;DHT22;30019;50.576;8.568;2022-11-09T07:20:50;11.40;99.90
44305;DHT22;30019;50.576;8.568;2022-11-09T07:23:16;11.40;99.90
44305;DHT22;30019;50.576;8.568;2022-11-09T07:25:41;11.40;99.90
44305;DHT22;30019;50.576;8.568;2022-11-09T07:28:08;11.40;99.90
44305;DHT22;30019;50.576;8.568;2022-11-09T07:30:34;11.50;99.90
44305;DHT22;30019;50.576;8.568;2022-11-09T07:33:01;11.50;99.90
44305;DHT22;30019;50.576;8.568;2022-11-09T07:35:28;11.60;99.90
44305;DHT22;30019;50.576;8.568;2022-11-09T07:37:53;11.60;99.90
44305;DHT22;30019;50.576;8.568;2022-11-09T07:40:19;11.60;99.90
44305;DHT22;30019;50.576;8.568;2022-11-09T07:42:45;11.60;99.90
44305;DHT22;30019;50.576;8.568;2022-11-09T07:45:11;11.60;99.90
44305;DHT22;30019;50.576;8.568;2022-11-09T07:47:36;11.70;99.90
44305;DHT22;30019;50.576;8.568;2022-11-09T07:50:03;11.80;99.90
44305;DHT22;30019;50.576;8.568;2022-11-09T07:52:28;11.80;99.90
44305;DHT22;30019;50.576;8.568;2022-11-09T07:54:54;11.90;99.90
44305;DHT22;30019;50.576;8.568;2022-11-09T07:57:20;11.90;99.90
44305;DHT22;30019;50.576;8.568;2022-11-09T07:59:46;12.10;99.90
44305;DHT22;30019;50.576;8.568;2022-11-09T08:02:11;12.10;99.90
44305;DHT22;30019;50.576;8.568;2022-11-09T08:04:37;12.20;99.90
44305;DHT22;30019;50.576;8.568;2022-11-09T08:07:02;12.20;99.90
44305;DHT22;30019;50.576;8.568;2022-11-09T08:09:28;12.30;99.90
44305;DHT22;30019;50.576;8.568;2022-11-09T08:11:54;12.40;99.90
44305;DHT22;30019;50.576;8.568;2022-11-09T08:14:19;12.40;99.90
44305;DHT22;30019;50.576;8.568;2022-11-09T08:16:45;12.50;99.90
44305;DHT22;30019;50.576;8.568;2022-11-09T08:19:10;12.70;99.90
44305;DHT22;30019;50.576;8.568;2022-11-09T08:21:36;12.60;99.90
44305;DHT22;30019;50.576;8.568;2022-11-09T08:24:02;12.60;99.90
44305;DHT22;30019;50.576;8.568;2022-11-09T08:26:28;12.60;99.90
44305;DHT22;30019;50.576;8.568;2022-11-09T08:28:54;12.70;99.90
44305;DHT22;30019;50.576;8.568;2022-11-09T08:31:20;12.70;99.90
44305;DHT22;30019;50.576;8.568;2022-11-09T08:33:45;12.70;99.90
44305;DHT22;30019;50.576;8.568;2022-11-09T08:36:14;12.70;99.90
44305;DHT22;30019;50.576;8.568;2022-11-09T08:38:40;12.70;99.90
44305;DHT22;30019;50.576;8.568;2022-11-09T08:41:06;12.80;99.90
44305;DHT22;30019;50.576;8.568;2022-11-09T08:43:32;12.80;99.90
44305;DHT22;30019;50.576;8.568;2022-11-09T08:45:57;12.80;99.90
44305;DHT22;30019;50.576;8.568;2022-11-09T08:48:23;13.00;99.90
44305;DHT22;30019;50.576;8.568;2022-11-09T08:50:57;13.10;99.90
44305;DHT22;30019;50.576;8.568;2022-11-09T08:53:24;13.20;99.90
44305;DHT22;30019;50.576;8.568;2022-11-09T08:55:50;13.30;99.90
44305;DHT22;30019;50.576;8.568;2022-11-09T08:58:17;13.40;99.90
44305;DHT22;30019;50.576;8.568;2022-11-09T09:00:42;13.60;99.90
44305;DHT22;30019;50.576;8.568;2022-11-09T09:03:08;13.80;99.90
44305;DHT22;30019;50.576;8.568;2022-11-09T09:05:34;13.80;99.90
44305;DHT22;30019;50.576;8.568;2022-11-09T09:08:01;13.90;99.90
44305;DHT22;30019;50.576;8.568;2022-11-09T09:10:27;14.00;99.90
44305;DHT22;30019;50.576;8.568;2022-11-09T09:12:54;14.20;99.90
44305;DHT22;30019;50.576;8.568;2022-11-09T09:15:20;14.30;99.90
44305;DHT22;30019;50.576;8.568;2022-11-09T09:17:45;14.40;99.90
44305;DHT22;30019;50.576;8.568;2022-11-09T09:20:11;14.50;99.90
44305;DHT22;30019;50.576;8.568;2022-11-09T09:22:36;14.50;99.90
44305;DHT22;30019;50.576;8.568;2022-11-09T09:25:03;14.60;99.90
44305;DHT22;30019;50.576;8.568;2022-11-09T09:27:29;14.70;99.90
44305;DHT22;30019;50.576;8.568;2022-11-09T09:29:55;14.60;99.90
44305;DHT22;30019;50.576;8.568;2022-11-09T09:32:20;14.70;99.90
44305;DHT22;30019;50.576;8.568;2022-11-09T09:34:46;14.70;99.90
44305;DHT22;30019;50.576;8.568;2022-11-09T09:37:12;14.70;99.90
44305;DHT22;30019;50.576;8.568;2022-11-09T09:39:37;14.80;99.90
44305;DHT22;30019;50.576;8.568;2022-11-09T09:42:39;14.80;99.90
44305;DHT22;30019;50.576;8.568;2022-11-09T09:45:33;14.80;99.90
44305;DHT22;30019;50.576;8.568;2022-11-09T09:48:21;14.90;99.90
44305;DHT22;30019;50.576;8.568;2022-11-09T09:50:57;14.90;99.90
44305;DHT22;30019;50.576;8.568;2022-11-09T09:53:45;14.90;99.90
44305;DHT22;30019;50.576;8.568;2022-11-09T09:56:23;14.90;99.90
44305;DHT22;30019;50.576;8.568;2022-11-09T10:01:35;15.20;99.90
44305;DHT22;30019;50.576;8.568;2022-11-09T10:04:01;15.30;99.90
44305;DHT22;30019;50.576;8.568;2022-11-09T10:25:23;15.80;99.90
44305;DHT22;30019;50.576;8.568;2022-11-09T10:27:56;15.70;99.90
44305;DHT22;30019;50.576;8.568;2022-11-09T10:30:23;15.70;99.90
44305;DHT22;30019;50.576;8.568;2022-11-09T10:33:18;15.80;99.90
44305;DHT22;30019;50.576;8.568;2022-11-09T10:36:25;16.20;99.90
44305;DHT22;30019;50.576;8.568;2022-11-09T10:38:49;16.50;99.90
44305;DHT22;30019;50.576;8.568;2022-11-09T10:41:38;16.60;99.90
44305;DHT22;30019;50.576;8.568;2022-11-09T10:44:04;16.50;99.90
44305;DHT22;30019;50.576;8.568;2022-11-09T10:46:30;16.20;99.90
44305;DHT22;30019;50.576;8.568;2022-11-09T10:49:20;16.00;99.90
44305;DHT22;30019;50.576;8.568;2022-11-09T10:51:45;15.80;99.90
44305;DHT22;30019;50.576;8.568;2022-11-09T10:54:18;15.70;99.90
44305;DHT22;30019;50.576;8.568;2022-11-09T10:56:47;15.60;99.90
44305;DHT22;30019;50.576;8.568;2022-11-09T11:07:34;15.10;99.90
44305;DHT22;30019;50.576;8.568;2022-11-09T11:10:21;15.00;99.90
44305;DHT22;30019;50.576;8.568;2022-11-09T11:15:29;15.20;99.90
44305;DHT22;30019;50.576;8.568;2022-11-09T11:18:11;15.40;99.90
44305;DHT22;30019;50.576;8.568;2022-11-09T11:26:59;17.30;99.90
44305;DHT22;30019;50.576;8.568;2022-11-09T11:32:15;18.90;99.90
44305;DHT22;30019;50.576;8.568;2022-11-09T11:34:41;19.10;99.90
44305;DHT22;30019;50.576;8.568;2022-11-09T11:40:29;19.30;99.90
44305;DHT22;30019;50.576;8.568;2022-11-09T11:50:49;19.60;99.90
44305;DHT22;30019;50.576;8.568;2022-11-09T11:53:40;19.70;99.90
44305;DHT22;30019;50.576;8.568;2022-11-09T12:10:27;19.80;99.90
44305;DHT22;30019;50.576;8.568;2022-11-09T12:13:02;19.80;99.90
44305;DHT22;30019;50.576;8.568;2022-11-09T12:18:39;19.80;99.90
44305;DHT22;30019;50.576;8.568;2022-11-09T12:24:36;19.80;99.90
44305;DHT22;30019;50.576;8.568;2022-11-09T12:30:00;19.80;99.90
44305;DHT22;30019;50.576;8.568;2022-11-09T12:32:51;19.70;99.90
44305;DHT22;30019;50.576;8.568;2022-11-09T12:35:22;19.70;99.90
44305;DHT22;30019;50.576;8.568;2022-11-09T12:37:54;19.70;99.90
44305;DHT22;30019;50.576;8.568;2022-11-09T12:40:23;19.70;99.90
44305;DHT22;30019;50.576;8.568;2022-11-09T12:43:15;19.70;99.90
44305;DHT22;30019;50.576;8.568;2022-11-09T12:45:43;19.70;99.90
44305;DHT22;30019;50.576;8.568;2022-11-09T12:48:27;19.70;99.90
44305;DHT22;30019;50.576;8.568;2022-11-09T12:50:54;19.70;99.90
44305;DHT22;30019;50.576;8.568;2022-11-09T12:53:36;19.80;99.90
44305;DHT22;30019;50.576;8.568;2022-11-09T12:56:19;19.70;99.90
44305;DHT22;30019;50.576;8.568;2022-11-09T12:58:46;19.70;99.90
44305;DHT22;30019;50.576;8.568;2022-11-09T13:04:02;19.70;99.90
44305;DHT22;30019;50.576;8.568;2022-11-09T13:06:30;19.70;99.90
44305;DHT22;30019;50.576;8.568;2022-11-09T13:09:17;19.70;99.90
44305;DHT22;30019;50.576;8.568;2022-11-09T13:11:48;19.70;99.90
44305;DHT22;30019;50.576;8.568;2022-11-09T13:21:58;19.70;99.90
44305;DHT22;30019;50.576;8.568;2022-11-09T13:27:02;19.70;99.90
44305;DHT22;30019;50.576;8.568;2022-11-09T13:34:48;19.70;99.90
44305;DHT22;30019;50.576;8.568;2022-11-09T13:48:01;19.70;99.90
44305;DHT22;30019;50.576;8.568;2022-11-09T13:50:29;19.70;99.90
44305;DHT22;30019;50.576;8.568;2022-11-09T13:52:57;19.70;99.90
44305;DHT22;30019;50.576;8.568;2022-11-09T13:55:37;19.60;99.90
44305;DHT22;30019;50.576;8.568;2022-11-09T13:58:26;19.60;99.90
44305;DHT22;30019;50.576;8.568;2022-11-09T14:00:52;19.60;99.90
44305;DHT22;30019;50.576;8.568;2022-11-09T14:03:21;19.60;99.90
44305;DHT22;30019;50.576;8.568;2022-11-09T14:05:50;19.70;99.90
44305;DHT22;30019;50.576;8.568;2022-11-09T14:08:24;19.70;99.90
44305;DHT22;30019;50.576;8.568;2022-11-09T14:11:11;19.70;99.90
44305;DHT22;30019;50.576;8.568;2022-11-09T14:16:58;19.60;99.90
44305;DHT22;30019;50.576;8.568;2022-11-09T14:22:18;19.60;99.90
44305;DHT22;30019;50.576;8.568;2022-11-09T14:24:44;19.60;99.90
44305;DHT22;30019;50.576;8.568;2022-11-09T14:27:12;19.60;99.90
44305;DHT22;30019;50.576;8.568;2022-11-09T14:29:54;19.60;99.90
44305;DHT22;30019;50.576;8.568;2022-11-09T14:32:36;19.70;99.90
44305;DHT22;30019;50.576;8.568;2022-11-09T14:35:33;19.80;99.90
44305;DHT22;30019;50.576;8.568;2022-11-09T14:38:01;19.80;99.90
44305;DHT22;30019;50.576;8.568;2022-11-09T14:40:45;19.90;99.90
44305;DHT22;30019;50.576;8.568;2022-11-09T14:43:25;19.90;99.90
44305;DHT22;30019;50.576;8.568;2022-11-09T14:46:01;19.90;99.90
44305;DHT22;30019;50.576;8.568;2022-11-09T14:48:28;19.90;99.90
44305;DHT22;30019;50.576;8.568;2022-11-09T14:50:57;19.80;99.90
44305;DHT22;30019;50.576;8.568;2022-11-09T14:53:32;19.80;99.90
44305;DHT22;30019;50.576;8.568;2022-11-09T14:56:01;19.80;99.90
44305;DHT22;30019;50.576;8.568;2022-11-09T14:58:30;19.80;99.90
44305;DHT22;30019;50.576;8.568;2022-11-09T15:06:33;19.60;99.90
44305;DHT22;30019;50.576;8.568;2022-11-09T15:09:06;19.60;99.90
44305;DHT22;30019;50.576;8.568;2022-11-09T15:11:36;19.60;99.90
44305;DHT22;30019;50.576;8.568;2022-11-09T15:14:27;19.50;99.90
44305;DHT22;30019;50.576;8.568;2022-11-09T15:17:32;19.40;99.90
44305;DHT22;30019;50.576;8.568;2022-11-09T15:30:41;19.20;99.90
44305;DHT22;30019;50.576;8.568;2022-11-09T15:35:49;19.20;99.90
44305;DHT22;30019;50.576;8.568;2022-11-09T15:41:00;19.10;99.90
44305;DHT22;30019;50.576;8.568;2022-11-09T15:43:26;19.00;99.90
44305;DHT22;30019;50.576;8.568;2022-11-09T15:45:52;19.10;99.90
44305;DHT22;30019;50.576;8.568;2022-11-09T15:48:18;19.10;99.90
44305;DHT22;30019;50.576;8.568;2022-11-09T15:50:44;19.10;99.90
44305;DHT22;30019;50.576;8.568;2022-11-09T15:53:11;19.00;99.90
44305;DHT22;30019;50.576;8.568;2022-11-09T15:55:37;19.00;99.90
44305;DHT22;30019;50.576;8.568;2022-11-09T15:58:02;19.10;99.90
44305;DHT22;30019;50.576;8.568;2022-11-09T16:00:28;19.10;99.90
44305;DHT22;30019;50.576;8.568;2022-11-09T16:02:53;19.20;99.90
44305;DHT22;30019;50.576;8.568;2022-11-09T16:05:19;19.20;99.90
44305;DHT22;30019;50.576;8.568;2022-11-09T16:07:51;19.30;99.90
44305;DHT22;30019;50.576;8.568;2022-11-09T16:10:18;19.30;99.90
44305;DHT22;30019;50.576;8.568;2022-11-09T16:12:48;19.30;99.90
44305;DHT22;30019;50.576;8.568;2022-11-09T16:15:18;19.40;99.90
44305;DHT22;30019;50.576;8.568;2022-11-09T16:17:43;19.40;99.90
44305;DHT22;30019;50.576;8.568;2022-11-09T16:20:09;19.30;99.90
44305;DHT22;30019;50.576;8.568;2022-11-09T16:22:35;19.40;99.90
44305;DHT22;30019;50.576;8.568;2022-11-09T16:25:01;19.40;99.90
44305;DHT22;30019;50.576;8.568;2022-11-09T16:27:27;19.40;99.90
44305;DHT22;30019;50.576;8.568;2022-11-09T16:29:53;19.40;99.90
44305;DHT22;30019;50.576;8.568;2022-11-09T16:32:19;19.40;99.90
44305;DHT22;30019;50.576;8.568;2022-11-09T16:34:45;19.40;99.90
44305;DHT22;30019;50.576;8.568;2022-11-09T16:37:10;19.40;99.90
44305;DHT22;30019;50.576;8.568;2022-11-09T16:39:36;19.40;99.90
44305;DHT22;30019;50.576;8.568;2022-11-09T16:42:06;19.40;99.90
44305;DHT22;30019;50.576;8.568;2022-11-09T16:44:35;19.50;99.90
44305;DHT22;30019;50.576;8.568;2022-11-09T16:47:03;19.50;99.90
44305;DHT22;30019;50.576;8.568;2022-11-09T16:49:30;19.60;99.90
44305;DHT22;30019;50.576;8.568;2022-11-09T16:51:56;19.60;99.90
44305;DHT22;30019;50.576;8.568;2022-11-09T16:54:22;19.60;99.90
44305;DHT22;30019;50.576;8.568;2022-11-09T16:56:47;19.60;99.90
44305;DHT22;30019;50.576;8.568;2022-11-09T16:59:14;19.60;99.90
44305;DHT22;30019;50.576;8.568;2022-11-09T17:01:39;19.60;99.90
44305;DHT22;30019;50.576;8.568;2022-11-09T17:04:05;19.60;99.90
44305;DHT22;30019;50.576;8.568;2022-11-09T17:06:34;19.60;99.90
44305;DHT22;30019;50.576;8.568;2022-11-09T17:09:00;19.60;99.90
44305;DHT22;30019;50.576;8.568;2022-11-09T17:11:26;19.70;99.90
44305;DHT22;30019;50.576;8.568;2022-11-09T17:13:58;19.70;99.90
44305;DHT22;30019;50.576;8.568;2022-11-09T17:16:25;19.70;99.90
44305;DHT22;30019;50.576;8.568;2022-11-09T17:18:53;19.70;99.90
44305;DHT22;30019;50.576;8.568;2022-11-09T17:21:19;19.70;99.90
44305;DHT22;30019;50.576;8.568;2022-11-09T17:23:44;19.70;99.90
44305;DHT22;30019;50.576;8.568;2022-11-09T17:26:10;19.70;99.90
44305;DHT22;30019;50.576;8.568;2022-11-09T17:28:37;19.70;99.90
44305;DHT22;30019;50.576;8.568;2022-11-09T17:31:07;19.70;99.90
44305;DHT22;30019;50.576;8.568;2022-11-09T17:33:33;19.80;99.90
44305;DHT22;30019;50.576;8.568;2022-11-09T17:36:00;19.80;99.90
44305;DHT22;30019;50.576;8.568;2022-11-09T17:38:28;19.70;99.90
44305;DHT22;30019;50.576;8.568;2022-11-09T17:41:04;19.70;99.90
44305;DHT22;30019;50.576;8.568;2022-11-09T17:43:35;19.80;99.90
44305;DHT22;30019;50.576;8.568;2022-11-09T17:48:33;19.70;99.90
44305;DHT22;30019;50.576;8.568;2022-11-09T17:50:59;19.60;99.90
44305;DHT22;30019;50.576;8.568;2022-11-09T17:53:25;19.60;99.90